createdAt,value
2023-02-19T00:00:14.985Z,10.30
2023-02-19T00:02:42.652Z,10.30
2023-02-19T00:05:10.499Z,10.30
2023-02-19T00:07:38.334Z,10.20
2023-02-19T00:10:06.325Z,10.30
2023-02-19T00:12:33.891Z,10.20
2023-02-19T00:15:02.718Z,10.30
2023-02-19T00:17:31.652Z,10.20
2023-02-19T00:19:59.396Z,10.20
2023-02-19T00:22:27.010Z,10.20
2023-02-19T00:24:54.612Z,10.20
2023-02-19T00:27:22.339Z,10.20
2023-02-19T00:29:50.528Z,10.20
2023-02-19T00:32:18.188Z,10.20
2023-02-19T00:34:45.885Z,10.10
2023-02-19T00:37:13.560Z,10.10
2023-02-19T00:39:41.208Z,10.10
2023-02-19T00:42:09.583Z,10.10
2023-02-19T00:44:37.439Z,9.90
2023-02-19T00:47:05.011Z,9.90
2023-02-19T00:49:32.954Z,9.90
2023-02-19T00:52:00.811Z,10.00
2023-02-19T00:54:28.479Z,10.00
2023-02-19T00:56:56.173Z,9.90
2023-02-19T00:59:23.946Z,10.00
2023-02-19T01:01:51.601Z,9.90
2023-02-19T01:04:19.276Z,10.00
2023-02-19T01:06:49.158Z,9.80
2023-02-19T01:09:17.213Z,9.80
2023-02-19T01:11:45.049Z,9.90
2023-02-19T01:14:13.137Z,10.00
2023-02-19T01:16:40.822Z,9.90
2023-02-19T01:19:08.609Z,9.70
2023-02-19T01:21:36.375Z,9.60
2023-02-19T01:24:04.414Z,9.70
2023-02-19T01:26:33.997Z,9.60
2023-02-19T01:29:03.849Z,9.70
2023-02-19T01:31:32.934Z,9.70
2023-02-19T01:34:03.784Z,9.70
2023-02-19T01:36:33.705Z,9.60
2023-02-19T01:39:05.098Z,9.50
2023-02-19T01:41:36.497Z,9.80
2023-02-19T01:44:28.854Z,9.80
2023-02-19T01:46:58.745Z,9.60
2023-02-19T01:49:30.603Z,9.70
2023-02-19T01:52:00.668Z,9.90
2023-02-19T01:54:33.083Z,9.90
2023-02-19T01:57:04.437Z,9.90
2023-02-19T01:59:33.315Z,9.70
2023-02-19T02:02:01.531Z,9.90
2023-02-19T02:04:34.038Z,9.80
2023-02-19T02:07:24.663Z,9.70
2023-02-19T02:10:11.364Z,9.90
2023-02-19T02:12:39.007Z,9.90
2023-02-19T02:15:07.808Z,10.00
2023-02-19T02:17:38.557Z,9.90
2023-02-19T02:20:40.862Z,9.90
2023-02-19T02:23:53.817Z,10.00
2023-02-19T02:26:51.225Z,10.00
2023-02-19T02:29:45.177Z,9.90
2023-02-19T02:32:26.574Z,9.80
2023-02-19T02:35:00.029Z,9.70
2023-02-19T02:37:31.773Z,9.80
2023-02-19T02:40:01.136Z,9.80
2023-02-19T02:42:30.036Z,9.80
2023-02-19T02:45:38.499Z,9.80
2023-02-19T02:48:43.833Z,9.70
2023-02-19T02:51:12.804Z,9.70
2023-02-19T02:54:10.789Z,9.80
2023-02-19T02:56:41.454Z,9.90
2023-02-19T02:59:12.680Z,9.90
2023-02-19T03:02:04.168Z,9.90
2023-02-19T03:05:04.400Z,9.80
2023-02-19T03:07:38.704Z,9.80
2023-02-19T03:10:10.254Z,9.90
2023-02-19T03:12:59.451Z,9.70
2023-02-19T03:16:00.137Z,9.70
2023-02-19T03:18:49.414Z,9.80
2023-02-19T03:21:22.217Z,9.80
2023-02-19T03:24:09.687Z,9.80
2023-02-19T03:26:39.493Z,9.90
2023-02-19T03:29:25.394Z,9.90
2023-02-19T03:32:04.428Z,9.80
2023-02-19T03:34:37.496Z,9.70
2023-02-19T03:37:44.276Z,9.80
2023-02-19T03:40:12.637Z,9.60
2023-02-19T03:42:58.877Z,9.70
2023-02-19T03:45:45.585Z,9.80
2023-02-19T03:48:45.822Z,9.80
2023-02-19T03:51:16.365Z,9.80
2023-02-19T03:54:13.480Z,9.70
2023-02-19T03:56:57.888Z,9.70
2023-02-19T03:59:46.179Z,9.60
2023-02-19T04:02:36.603Z,9.80
2023-02-19T04:05:14.606Z,9.80
2023-02-19T04:07:47.914Z,9.60
2023-02-19T04:10:19.421Z,9.60
2023-02-19T04:13:02.368Z,9.70
2023-02-19T04:15:33.866Z,9.70
2023-02-19T04:18:06.605Z,9.80
2023-02-19T04:20:42.505Z,9.60
2023-02-19T04:23:11.601Z,9.70
2023-02-19T04:25:42.426Z,9.60
2023-02-19T04:28:10.655Z,9.70
2023-02-19T04:30:38.415Z,9.70
2023-02-19T04:33:06.432Z,9.70
2023-02-19T04:35:37.740Z,9.70
2023-02-19T04:38:05.682Z,9.60
2023-02-19T04:40:33.609Z,9.70
2023-02-19T04:43:01.477Z,9.70
2023-02-19T04:45:54.859Z,9.60
2023-02-19T04:48:22.696Z,9.70
2023-02-19T04:50:50.400Z,9.70
2023-02-19T04:53:18.340Z,9.60
2023-02-19T04:55:47.130Z,9.40
2023-02-19T04:58:15.136Z,9.50
2023-02-19T05:00:42.996Z,9.60
2023-02-19T05:03:11.148Z,9.50
2023-02-19T05:05:38.956Z,9.50
2023-02-19T05:08:06.681Z,9.60
2023-02-19T05:10:35.003Z,9.70
2023-02-19T05:13:02.658Z,9.60
2023-02-19T05:15:30.409Z,9.40
2023-02-19T05:17:58.042Z,9.50
2023-02-19T05:20:25.928Z,9.50
2023-02-19T05:22:53.562Z,9.50
2023-02-19T05:25:21.138Z,9.50
2023-02-19T05:27:48.832Z,9.40
2023-02-19T05:30:16.666Z,9.40
2023-02-19T05:32:44.476Z,9.50
2023-02-19T05:35:12.086Z,9.60
2023-02-19T05:37:39.707Z,9.40
2023-02-19T05:40:07.494Z,9.40
2023-02-19T05:42:35.119Z,9.40
2023-02-19T05:45:02.752Z,9.60
2023-02-19T05:47:30.394Z,9.40
2023-02-19T05:49:57.967Z,9.60
2023-02-19T05:52:25.893Z,9.40
2023-02-19T05:54:53.627Z,9.40
2023-02-19T05:57:21.906Z,9.50
2023-02-19T05:59:49.628Z,9.60
2023-02-19T06:02:17.428Z,9.40
2023-02-19T06:04:44.996Z,9.30
2023-02-19T06:07:12.783Z,9.30
2023-02-19T06:09:40.397Z,9.60
2023-02-19T06:12:08.207Z,9.60
2023-02-19T06:14:35.848Z,9.40
2023-02-19T06:17:03.388Z,9.30
2023-02-19T06:19:30.944Z,9.40
2023-02-19T06:21:58.495Z,9.40
2023-02-19T06:24:26.120Z,9.50
2023-02-19T06:26:53.678Z,9.40
2023-02-19T06:29:21.225Z,9.50
2023-02-19T06:31:48.882Z,9.50
2023-02-19T06:34:18.007Z,9.50
2023-02-19T06:36:45.606Z,9.80
2023-02-19T06:39:13.261Z,9.80
2023-02-19T06:41:40.828Z,9.70
2023-02-19T06:44:08.904Z,9.70
2023-02-19T06:46:36.662Z,9.60
2023-02-19T06:49:05.760Z,9.60
2023-02-19T06:51:33.726Z,9.60
2023-02-19T06:54:02.501Z,9.80
2023-02-19T06:56:39.779Z,9.70
2023-02-19T06:59:19.276Z,9.80
2023-02-19T07:01:47.037Z,9.80
2023-02-19T07:04:14.807Z,9.70
2023-02-19T07:06:42.733Z,9.70
2023-02-19T07:09:11.308Z,9.70
2023-02-19T07:11:40.135Z,9.90
2023-02-19T07:14:13.806Z,10.00
2023-02-19T07:16:41.512Z,9.90
2023-02-19T07:19:12.129Z,9.90
2023-02-19T07:21:39.820Z,9.90
2023-02-19T07:24:07.500Z,9.90
2023-02-19T07:26:35.516Z,9.90
2023-02-19T07:29:03.176Z,10.00
2023-02-19T07:31:31.041Z,9.90
2023-02-19T07:33:58.732Z,9.90
2023-02-19T07:36:26.327Z,10.00
2023-02-19T07:38:57.957Z,10.00
2023-02-19T07:41:27.172Z,10.00
2023-02-19T07:43:58.241Z,10.00
2023-02-19T07:46:26.144Z,10.10
2023-02-19T07:48:53.685Z,10.10
2023-02-19T07:51:22.152Z,10.10
2023-02-19T07:53:50.965Z,10.20
2023-02-19T07:56:19.526Z,10.20
2023-02-19T07:58:47.445Z,10.20
2023-02-19T08:01:17.856Z,10.20
2023-02-19T08:03:47.035Z,10.20
2023-02-19T08:06:15.672Z,10.30
2023-02-19T08:08:43.372Z,10.30
2023-02-19T08:11:29.473Z,10.20
2023-02-19T08:13:57.117Z,10.20
2023-02-19T08:16:40.760Z,10.30
2023-02-19T08:19:10.095Z,10.30
2023-02-19T08:21:37.811Z,10.30
2023-02-19T08:24:05.829Z,10.30
2023-02-19T08:26:34.104Z,10.30
2023-02-19T08:29:01.940Z,10.30
2023-02-19T08:31:29.684Z,10.30
2023-02-19T08:33:57.551Z,10.20
2023-02-19T08:36:25.301Z,10.20
2023-02-19T08:38:52.971Z,10.20
2023-02-19T08:41:21.293Z,10.00
2023-02-19T08:43:49.267Z,10.10
2023-02-19T08:46:16.999Z,10.00
2023-02-19T08:48:44.620Z,9.90
2023-02-19T08:51:12.887Z,9.90
2023-02-19T08:53:41.591Z,9.80
2023-02-19T08:56:12.078Z,9.80
2023-02-19T08:58:40.711Z,9.70
2023-02-19T09:01:10.916Z,9.60
2023-02-19T09:03:39.142Z,9.50
2023-02-19T09:06:07.575Z,9.50
2023-02-19T09:08:35.275Z,9.50
2023-02-19T09:11:04.815Z,9.50
2023-02-19T09:13:32.434Z,9.60
2023-02-19T09:16:00.101Z,9.60
2023-02-19T09:18:27.791Z,9.70
2023-02-19T09:20:55.774Z,9.80
2023-02-19T09:23:23.388Z,9.70
2023-02-19T09:25:57.732Z,9.90
2023-02-19T09:28:25.768Z,10.00
2023-02-19T09:30:53.480Z,9.90
2023-02-19T09:33:21.158Z,10.00
2023-02-19T09:35:48.843Z,9.90
2023-02-19T09:38:16.713Z,9.90
2023-02-19T09:40:45.640Z,9.90
2023-02-19T09:43:20.065Z,10.00
2023-02-19T09:45:48.979Z,10.00
2023-02-19T09:48:16.684Z,10.10
2023-02-19T09:50:48.114Z,10.00
2023-02-19T09:53:19.607Z,10.00
2023-02-19T09:55:48.125Z,10.00
2023-02-19T09:58:34.788Z,10.00
2023-02-19T10:01:05.750Z,10.00
2023-02-19T10:03:39.623Z,9.80
2023-02-19T10:06:24.696Z,9.90
2023-02-19T10:09:13.469Z,9.90
2023-02-19T10:11:42.834Z,10.10
2023-02-19T10:14:29.956Z,10.20
2023-02-19T10:17:03.984Z,10.50
2023-02-19T10:19:33.380Z,10.50
2023-02-19T10:22:04.228Z,10.40
2023-02-19T10:24:32.629Z,10.40
2023-02-19T10:27:00.493Z,10.50
2023-02-19T10:29:28.317Z,10.60
2023-02-19T10:32:27.376Z,10.60
2023-02-19T10:35:21.668Z,10.40
2023-02-19T10:37:51.289Z,10.40
2023-02-19T10:40:25.642Z,10.50
2023-02-19T10:43:02.478Z,10.60
2023-02-19T10:45:53.209Z,10.70
2023-02-19T10:48:30.626Z,10.90
2023-02-19T10:51:09.160Z,11.00
2023-02-19T10:53:49.259Z,10.80
2023-02-19T10:56:30.011Z,10.90
2023-02-19T10:59:19.659Z,10.90
2023-02-19T11:01:58.421Z,11.10
2023-02-19T11:04:34.264Z,11.00
2023-02-19T11:07:16.785Z,11.10
2023-02-19T11:09:46.474Z,11.00
2023-02-19T11:12:23.362Z,10.90
2023-02-19T11:14:51.551Z,10.90
2023-02-19T11:17:26.288Z,10.90
2023-02-19T11:19:56.940Z,10.90
2023-02-19T11:22:45.431Z,10.90
2023-02-19T11:25:13.120Z,11.00
2023-02-19T11:28:07.229Z,11.00
2023-02-19T11:30:44.653Z,11.00
2023-02-19T11:33:25.387Z,11.20
2023-02-19T11:36:21.913Z,11.10
2023-02-19T11:38:50.306Z,11.20
2023-02-19T11:41:49.482Z,11.20
2023-02-19T11:44:49.129Z,11.40
2023-02-19T11:47:36.087Z,11.80
2023-02-19T11:50:26.043Z,11.80
2023-02-19T11:53:10.474Z,11.90
2023-02-19T11:56:06.010Z,12.00
2023-02-19T11:58:45.988Z,12.10
2023-02-19T12:01:23.335Z,11.90
2023-02-19T12:04:16.128Z,12.20
2023-02-19T12:07:03.749Z,12.10
2023-02-19T12:09:37.372Z,11.90
2023-02-19T12:12:24.492Z,12.00
2023-02-19T12:15:23.656Z,11.90
2023-02-19T12:18:12.012Z,11.70
2023-02-19T12:21:07.445Z,11.70
2023-02-19T12:23:55.623Z,11.70
2023-02-19T12:26:23.369Z,11.60
2023-02-19T12:28:51.666Z,11.40
2023-02-19T12:31:35.377Z,11.60
2023-02-19T12:34:21.462Z,11.60
2023-02-19T12:37:12.836Z,11.70
2023-02-19T12:39:52.745Z,11.60
2023-02-19T12:42:40.342Z,11.80
2023-02-19T12:45:26.259Z,11.90
2023-02-19T12:48:07.560Z,12.00
2023-02-19T12:50:38.690Z,12.00
2023-02-19T12:53:31.262Z,12.00
2023-02-19T12:56:03.327Z,12.20
2023-02-19T12:58:39.038Z,12.20
2023-02-19T13:01:11.599Z,12.10
2023-02-19T13:03:45.187Z,12.10
2023-02-19T13:06:42.090Z,12.10
2023-02-19T13:09:21.595Z,12.10
2023-02-19T13:12:11.722Z,12.00
2023-02-19T13:14:45.440Z,11.90
2023-02-19T13:17:37.650Z,11.90
2023-02-19T13:20:27.507Z,11.70
2023-02-19T13:23:20.862Z,11.50
2023-02-19T13:26:20.990Z,11.30
2023-02-19T13:29:08.578Z,11.20
2023-02-19T13:31:58.100Z,11.10
2023-02-19T13:34:48.614Z,11.10
2023-02-19T13:37:17.615Z,11.30
2023-02-19T13:39:54.233Z,11.40
2023-02-19T13:42:25.699Z,11.30
2023-02-19T13:44:57.915Z,11.40
2023-02-19T13:47:56.351Z,11.40
2023-02-19T13:50:33.124Z,11.40
2023-02-19T13:53:02.652Z,11.30
2023-02-19T13:55:49.771Z,11.30
2023-02-19T13:58:33.310Z,11.10
2023-02-19T14:01:07.172Z,11.10
2023-02-19T14:03:39.882Z,11.10
2023-02-19T14:06:08.895Z,11.10
2023-02-19T14:08:58.227Z,11.00
2023-02-19T14:11:44.914Z,10.80
2023-02-19T14:14:38.952Z,10.70
2023-02-19T14:17:10.376Z,10.60
2023-02-19T14:20:17.444Z,10.60
2023-02-19T14:23:02.165Z,10.60
2023-02-19T14:25:42.943Z,10.50
2023-02-19T14:28:17.493Z,10.50
2023-02-19T14:30:54.408Z,10.40
2023-02-19T14:33:29.713Z,10.40
2023-02-19T14:36:01.165Z,10.40
2023-02-19T14:38:42.894Z,10.40
2023-02-19T14:41:14.590Z,10.40
2023-02-19T14:43:44.950Z,10.40
2023-02-19T14:46:33.476Z,10.40
2023-02-19T14:49:16.986Z,10.40
2023-02-19T14:51:53.134Z,10.30
2023-02-19T14:54:49.270Z,10.40
2023-02-19T14:57:24.837Z,10.30
2023-02-19T15:00:01.724Z,10.30
2023-02-19T15:02:33.489Z,10.30
2023-02-19T15:05:16.114Z,10.20
2023-02-19T15:07:45.986Z,10.20
2023-02-19T15:10:14.985Z,10.20
2023-02-19T15:13:08.164Z,10.10
2023-02-19T15:15:43.711Z,10.20
2023-02-19T15:18:24.245Z,10.10
2023-02-19T15:21:03.675Z,10.10
2023-02-19T15:23:34.828Z,10.10
2023-02-19T15:26:03.917Z,10.10
2023-02-19T15:28:34.646Z,10.10
2023-02-19T15:31:03.689Z,10.00
2023-02-19T15:33:32.557Z,10.00
2023-02-19T15:36:07.892Z,9.90
2023-02-19T15:38:37.057Z,9.90
2023-02-19T15:41:07.243Z,9.90
2023-02-19T15:44:07.481Z,9.90
2023-02-19T15:46:37.454Z,9.90
2023-02-19T15:49:22.836Z,9.80
2023-02-19T15:51:58.676Z,9.90
2023-02-19T15:54:27.500Z,9.80
2023-02-19T15:57:01.823Z,9.80
2023-02-19T15:59:48.108Z,9.80
2023-02-19T16:02:17.242Z,9.80
2023-02-19T16:04:46.146Z,9.70
2023-02-19T16:07:31.047Z,9.60
2023-02-19T16:10:16.628Z,9.60
2023-02-19T16:12:56.889Z,9.50
2023-02-19T16:15:28.393Z,9.60
2023-02-19T16:17:59.143Z,9.50
2023-02-19T16:20:33.651Z,9.40
2023-02-19T16:23:12.313Z,9.40
2023-02-19T16:25:44.691Z,9.30
2023-02-19T16:28:19.444Z,9.30
2023-02-19T16:31:01.545Z,9.30
2023-02-19T16:33:37.208Z,9.30
2023-02-19T16:36:35.199Z,9.30
2023-02-19T16:39:10.111Z,9.20
2023-02-19T16:41:41.662Z,9.20
2023-02-19T16:44:22.421Z,9.20
2023-02-19T16:46:56.443Z,9.20
2023-02-19T16:49:25.934Z,9.20
2023-02-19T16:51:56.616Z,9.10
2023-02-19T16:54:25.665Z,9.10
2023-02-19T16:56:54.018Z,9.10
2023-02-19T16:59:22.926Z,9.00
2023-02-19T17:01:52.743Z,9.00
2023-02-19T17:04:21.231Z,9.00
2023-02-19T17:06:50.480Z,9.10
2023-02-19T17:09:19.383Z,9.00
2023-02-19T17:11:50.086Z,9.10
2023-02-19T17:14:27.860Z,9.00
2023-02-19T17:16:56.278Z,9.00
2023-02-19T17:19:24.900Z,8.90
2023-02-19T17:21:55.011Z,9.00
2023-02-19T17:24:27.794Z,9.00
2023-02-19T17:26:57.089Z,9.00
2023-02-19T17:29:26.447Z,8.90
2023-02-19T17:31:54.972Z,8.70
2023-02-19T17:34:23.047Z,8.80
2023-02-19T17:36:52.647Z,8.70
2023-02-19T17:39:23.837Z,8.70
2023-02-19T17:41:55.004Z,8.80
2023-02-19T17:44:23.809Z,8.70
2023-02-19T17:46:54.873Z,8.70
2023-02-19T17:49:36.155Z,8.70
2023-02-19T17:52:05.437Z,8.80
2023-02-19T17:54:34.418Z,8.70
2023-02-19T17:57:04.876Z,8.60
2023-02-19T17:59:34.182Z,8.60
2023-02-19T18:02:03.942Z,8.60
2023-02-19T18:04:35.402Z,8.60
2023-02-19T18:07:04.762Z,8.50
2023-02-19T18:09:33.388Z,8.40
2023-02-19T18:12:01.586Z,8.50
2023-02-19T18:14:31.701Z,8.40
2023-02-19T18:17:03.385Z,8.30
2023-02-19T18:19:33.094Z,8.30
2023-02-19T18:22:01.925Z,8.30
2023-02-19T18:24:31.080Z,8.20
2023-02-19T18:27:00.330Z,8.20
2023-02-19T18:29:34.238Z,8.20
2023-02-19T18:32:04.162Z,8.20
2023-02-19T18:34:33.609Z,8.10
2023-02-19T18:37:02.818Z,8.00
2023-02-19T18:39:30.864Z,8.00
2023-02-19T18:41:59.797Z,8.00
2023-02-19T18:44:32.226Z,8.00
2023-02-19T18:47:02.093Z,7.90
2023-02-19T18:49:33.088Z,7.80
2023-02-19T18:52:01.959Z,7.80
2023-02-19T18:54:32.693Z,7.70
2023-02-19T18:57:02.963Z,7.70
2023-02-19T18:59:33.444Z,7.60
2023-02-19T19:02:03.297Z,7.60
2023-02-19T19:04:39.352Z,7.50
2023-02-19T19:07:10.585Z,7.60
2023-02-19T19:09:39.462Z,7.40
2023-02-19T19:12:08.041Z,7.40
2023-02-19T19:14:36.922Z,7.30
2023-02-19T19:17:06.202Z,7.30
2023-02-19T19:19:34.917Z,7.30
2023-02-19T19:22:04.396Z,7.30
2023-02-19T19:24:33.315Z,7.30
2023-02-19T19:27:03.042Z,7.30
2023-02-19T19:29:32.523Z,7.30
2023-02-19T19:32:02.302Z,7.20
2023-02-19T19:34:31.270Z,7.10
2023-02-19T19:36:59.790Z,7.10
2023-02-19T19:39:29.036Z,7.10
2023-02-19T19:41:57.849Z,7.00
2023-02-19T19:44:35.626Z,6.80
2023-02-19T19:47:04.450Z,6.80
2023-02-19T19:49:34.596Z,6.80
2023-02-19T19:52:04.332Z,6.70
2023-02-19T19:54:32.591Z,6.50
2023-02-19T19:57:01.808Z,6.70
2023-02-19T19:59:30.735Z,6.60
2023-02-19T20:01:59.054Z,6.60
2023-02-19T20:04:28.464Z,6.60
2023-02-19T20:07:03.386Z,6.60
2023-02-19T20:09:32.431Z,6.40
2023-02-19T20:12:01.880Z,6.30
2023-02-19T20:14:30.946Z,6.30
2023-02-19T20:16:59.530Z,6.30
2023-02-19T20:19:28.377Z,6.30
2023-02-19T20:21:57.427Z,6.20
2023-02-19T20:24:34.890Z,6.10
2023-02-19T20:27:05.147Z,6.10
2023-02-19T20:29:37.872Z,6.00
2023-02-19T20:32:07.150Z,6.00
2023-02-19T20:34:36.178Z,5.90
2023-02-19T20:37:05.846Z,5.70
2023-02-19T20:39:36.453Z,5.70
2023-02-19T20:42:06.612Z,5.70
2023-02-19T20:44:35.369Z,5.70
2023-02-19T20:47:04.464Z,5.50
2023-02-19T20:49:34.426Z,5.50
2023-02-19T20:52:09.702Z,5.50
2023-02-19T20:54:39.829Z,5.40
2023-02-19T20:57:09.525Z,5.30
2023-02-19T20:59:38.799Z,5.30
2023-02-19T21:02:15.894Z,5.30
2023-02-19T21:04:45.078Z,5.30
2023-02-19T21:07:15.412Z,5.20
2023-02-19T21:09:44.025Z,5.10
2023-02-19T21:12:13.489Z,5.00
2023-02-19T21:14:42.523Z,5.10
2023-02-19T21:17:11.502Z,5.00
2023-02-19T21:19:40.913Z,4.90
2023-02-19T21:22:09.352Z,5.00
2023-02-19T21:24:37.965Z,4.90
2023-02-19T21:27:06.228Z,4.90
2023-02-19T21:29:35.527Z,4.90
2023-02-19T21:32:04.106Z,4.90
2023-02-19T21:34:34.094Z,4.80
2023-02-19T21:37:02.436Z,4.80
2023-02-19T21:39:31.600Z,4.80
2023-02-19T21:42:00.406Z,4.80
2023-02-19T21:44:28.449Z,4.70
2023-02-19T21:46:56.380Z,4.60
2023-02-19T21:49:25.478Z,4.60
2023-02-19T21:51:53.678Z,4.60
2023-02-19T21:54:25.504Z,4.60
2023-02-19T21:56:53.967Z,4.60
2023-02-19T21:59:22.983Z,4.60
2023-02-19T22:01:52.430Z,4.50
2023-02-19T22:04:22.663Z,4.40
2023-02-19T22:06:50.459Z,4.40
2023-02-19T22:09:18.386Z,4.40
2023-02-19T22:11:45.994Z,4.30
2023-02-19T22:14:13.537Z,4.30
2023-02-19T22:16:41.232Z,4.20
2023-02-19T22:19:12.392Z,4.20
2023-02-19T22:21:44.381Z,4.10
2023-02-19T22:24:17.767Z,4.10
2023-02-19T22:26:46.495Z,4.00
2023-02-19T22:29:15.838Z,3.90
2023-02-19T22:31:43.794Z,4.00
2023-02-19T22:34:11.859Z,4.00
2023-02-19T22:36:40.555Z,4.00
2023-02-19T22:39:20.209Z,3.90
2023-02-19T22:41:48.311Z,3.90
2023-02-19T22:44:16.226Z,3.80
2023-02-19T22:46:49.489Z,3.80
2023-02-19T22:49:17.746Z,3.80
2023-02-19T22:52:04.770Z,3.80
2023-02-19T22:54:32.336Z,3.70
2023-02-19T22:56:59.929Z,3.60
2023-02-19T22:59:27.810Z,3.70
2023-02-19T23:01:55.764Z,3.70
2023-02-19T23:04:24.821Z,3.70
2023-02-19T23:06:52.811Z,3.60
2023-02-19T23:09:28.291Z,3.70
2023-02-19T23:12:05.147Z,3.60
2023-02-19T23:14:32.907Z,3.50
2023-02-19T23:17:00.614Z,3.50
2023-02-19T23:19:28.584Z,3.50
2023-02-19T23:21:56.674Z,3.60
2023-02-19T23:24:24.370Z,3.50
2023-02-19T23:26:53.310Z,3.50
2023-02-19T23:29:25.400Z,3.40
2023-02-19T23:31:54.493Z,3.50
2023-02-19T23:34:22.802Z,3.50
2023-02-19T23:36:50.945Z,3.40
2023-02-19T23:39:20.922Z,3.30
2023-02-19T23:41:54.571Z,3.30
2023-02-19T23:44:24.599Z,3.30
2023-02-19T23:46:53.011Z,3.30
2023-02-19T23:49:20.624Z,3.20
2023-02-19T23:51:48.324Z,3.30
2023-02-19T23:54:16.275Z,3.20
2023-02-19T23:56:44.193Z,3.20
2023-02-19T23:59:12.283Z,3.10
